Time;durP1;ratioP1;P1;durP2;ratioP2;P2;SDS_P1;SDS_P2;PMS_P1;PMS_P2;Temp;Humidity;BMP_temperature;BMP_pressure;BME280_temperature;BME280_humidity;BME280_pressure;Samples;Min_cycle;Max_cycle;Signal;HPM_P1;HPM_P2
2023/03/07 00:01:25;;;;;;;11.60;5.40;;;;;;;;;;5060928;28;20033;-68
2023/03/07 00:03:52;;;;;;;8.70;5.70;;;;;;;;;;5052490;28;20047;-68
2023/03/07 00:06:18;;;;;;;11.73;6.63;;;;;;;;;;5067530;28;20033;-68
2023/03/07 00:08:44;;;;;;;10.75;4.85;;;;;;;;;;5057007;28;20024;-68
2023/03/07 00:11:10;;;;;;;16.60;7.32;;;;;;;;;;5067488;28;20040;-68
2023/03/07 00:13:38;;;;;;;14.07;5.90;;;;;;;;;;5059828;28;20037;-68
2023/03/07 00:16:05;;;;;;;11.98;5.97;;;;;;;;;;5067517;28;20391;-68
2023/03/07 00:18:32;;;;;;;15.70;6.40;;;;;;;;;;5054384;28;20075;-68
2023/03/07 00:20:59;;;;;;;15.52;6.70;;;;;;;;;;5052176;28;20032;-69
2023/03/07 00:23:25;;;;;;;13.27;6.55;;;;;;;;;;5062096;28;20115;-68
2023/03/07 00:26:01;;;;;;;10.27;5.63;;;;;;;;;;5058027;28;20029;-68
2023/03/07 00:28:28;;;;;;;13.93;6.30;;;;;;;;;;5066585;28;20036;-68
2023/03/07 00:30:54;;;;;;;11.02;5.88;;;;;;;;;;5053488;28;20073;-68
2023/03/07 00:33:20;;;;;;;11.85;5.28;;;;;;;;;;5062626;28;20377;-68
2023/03/07 00:36:06;;;;;;;11.90;6.30;;;;;;;;;;5050527;28;20032;-68
2023/03/07 00:38:33;;;;;;;14.93;6.15;;;;;;;;;;5058074;28;20032;-68
2023/03/07 00:41:07;;;;;;;12.73;6.45;;;;;;;;;;5074877;28;20037;-68
2023/03/07 00:43:35;;;;;;;13.98;6.00;;;;;;;;;;5066382;28;20021;-68
2023/03/07 00:46:01;;;;;;;12.48;6.15;;;;;;;;;;5069320;28;20113;-68
2023/03/07 00:48:28;;;;;;;16.95;6.32;;;;;;;;;;5045102;28;20032;-68
2023/03/07 00:50:55;;;;;;;11.77;6.28;;;;;;;;;;5047580;28;20396;-68
2023/03/07 00:53:23;;;;;;;11.00;6.30;;;;;;;;;;5045959;28;20032;-68
2023/03/07 00:55:57;;;;;;;12.07;5.82;;;;;;;;;;5044274;28;20033;-68
2023/03/07 00:58:24;;;;;;;11.02;5.97;;;;;;;;;;5053417;28;20032;-68
2023/03/07 01:00:50;;;;;;;11.65;6.65;;;;;;;;;;5041350;28;20040;-67
2023/03/07 01:03:17;;;;;;;12.48;6.80;;;;;;;;;;5047971;28;20033;-68
2023/03/07 01:05:43;;;;;;;13.00;6.68;;;;;;;;;;5055022;28;20021;-67
2023/03/07 01:08:09;;;;;;;12.00;6.65;;;;;;;;;;5059137;28;20048;-68
2023/03/07 01:10:35;;;;;;;13.27;6.57;;;;;;;;;;5070888;28;20032;-68
2023/03/07 01:13:02;;;;;;;12.20;6.45;;;;;;;;;;5049708;28;20399;-67
2023/03/07 01:15:29;;;;;;;23.92;7.05;;;;;;;;;;5053368;28;20040;-67
2023/03/07 01:17:55;;;;;;;14.00;6.82;;;;;;;;;;5043314;28;20037;-68
2023/03/07 01:20:21;;;;;;;15.77;6.53;;;;;;;;;;5070167;28;20059;-68
2023/03/07 01:22:47;;;;;;;15.32;7.15;;;;;;;;;;5058395;28;20032;-68
2023/03/07 01:25:13;;;;;;;15.60;7.40;;;;;;;;;;5050481;28;20074;-68
2023/03/07 01:27:39;;;;;;;12.80;7.03;;;;;;;;;;5063295;28;20033;-67
2023/03/07 01:30:07;;;;;;;12.32;6.60;;;;;;;;;;5050818;28;20024;-67
2023/03/07 01:32:35;;;;;;;13.48;6.80;;;;;;;;;;5043098;28;20036;-67
2023/03/07 01:35:02;;;;;;;16.05;6.75;;;;;;;;;;5051052;28;20021;-67
2023/03/07 01:37:29;;;;;;;15.38;7.68;;;;;;;;;;5045017;28;20029;-67
2023/03/07 01:39:56;;;;;;;16.17;7.57;;;;;;;;;;5043469;28;20076;-67
2023/03/07 01:42:22;;;;;;;14.68;7.50;;;;;;;;;;5070096;28;20017;-67
2023/03/07 01:45:00;;;;;;;13.98;7.07;;;;;;;;;;5068461;28;20017;-67
2023/03/07 01:47:36;;;;;;;14.90;7.55;;;;;;;;;;5053528;28;20055;-68
2023/03/07 01:50:04;;;;;;;16.52;8.40;;;;;;;;;;5060801;28;20029;-68
2023/03/07 01:52:36;;;;;;;13.93;6.75;;;;;;;;;;5052243;28;20035;-68
2023/03/07 01:55:29;;;;;;;14.70;7.38;;;;;;;;;;5041373;28;20036;-68
2023/03/07 01:58:02;;;;;;;11.68;6.72;;;;;;;;;;5033105;28;20048;-67
2023/03/07 02:00:28;;;;;;;13.98;7.30;;;;;;;;;;5052125;28;20078;-67
2023/03/07 02:03:10;;;;;;;14.10;7.55;;;;;;;;;;5035974;28;20025;-67
2023/03/07 02:05:44;;;;;;;12.70;7.50;;;;;;;;;;5045422;28;20407;-68
2023/03/07 02:08:12;;;;;;;15.23;6.70;;;;;;;;;;5041683;28;20076;-67
2023/03/07 02:10:39;;;;;;;14.60;7.47;;;;;;;;;;5051947;28;20025;-68
2023/03/07 02:13:05;;;;;;;14.45;7.45;;;;;;;;;;5050672;28;20048;-68
2023/03/07 02:15:33;;;;;;;15.75;7.55;;;;;;;;;;5043537;28;20497;-68
2023/03/07 02:17:59;;;;;;;12.20;7.15;;;;;;;;;;5043136;28;20039;-67
2023/03/07 02:20:54;;;;;;;18.10;8.18;;;;;;;;;;5050937;28;20547;-67
2023/03/07 02:23:26;;;;;;;14.60;7.38;;;;;;;;;;5030172;28;20040;-67
2023/03/07 02:25:52;;;;;;;15.82;7.18;;;;;;;;;;5061824;28;20017;-67
2023/03/07 02:28:19;;;;;;;12.55;7.13;;;;;;;;;;5049964;28;20029;-68
2023/03/07 02:30:55;;;;;;;14.57;8.02;;;;;;;;;;5037841;28;20033;-67
2023/03/07 02:33:23;;;;;;;16.27;7.72;;;;;;;;;;5048332;28;20123;-67
2023/03/07 02:35:54;;;;;;;16.52;7.13;;;;;;;;;;5045983;28;20519;-67
2023/03/07 02:38:20;;;;;;;16.23;7.00;;;;;;;;;;5067436;28;20029;-67
2023/03/07 02:40:47;;;;;;;15.43;8.18;;;;;;;;;;5057828;28;20463;-67
2023/03/07 02:43:13;;;;;;;15.90;8.32;;;;;;;;;;5067713;28;20029;-67
2023/03/07 02:45:39;;;;;;;13.55;7.32;;;;;;;;;;5043425;28;20029;-67
2023/03/07 02:48:05;;;;;;;16.52;7.30;;;;;;;;;;5049673;28;20028;-67
2023/03/07 02:50:32;;;;;;;13.60;7.07;;;;;;;;;;5042006;28;20089;-67
2023/03/07 02:52:59;;;;;;;15.18;7.78;;;;;;;;;;5051217;28;20036;-67
2023/03/07 02:55:25;;;;;;;15.88;6.70;;;;;;;;;;5041343;28;20040;-67
2023/03/07 02:57:57;;;;;;;13.45;6.78;;;;;;;;;;5043069;28;20047;-67
2023/03/07 03:00:23;;;;;;;18.08;7.65;;;;;;;;;;5049083;28;20060;-67
2023/03/07 03:02:50;;;;;;;13.65;7.25;;;;;;;;;;5037420;28;20037;-67
2023/03/07 03:05:18;;;;;;;17.88;7.93;;;;;;;;;;5054034;28;20028;-67
2023/03/07 03:07:44;;;;;;;17.13;8.23;;;;;;;;;;5072148;28;20499;-67
2023/03/07 03:10:11;;;;;;;10.82;6.47;;;;;;;;;;5042011;28;20061;-67
2023/03/07 03:12:37;;;;;;;14.15;7.43;;;;;;;;;;5050228;28;20048;-67
2023/03/07 03:15:04;;;;;;;17.23;7.35;;;;;;;;;;5054177;28;20372;-67
2023/03/07 03:17:32;;;;;;;14.00;7.80;;;;;;;;;;5047179;28;20033;-67
2023/03/07 03:19:58;;;;;;;18.73;7.25;;;;;;;;;;5044871;28;20032;-67
2023/03/07 03:22:24;;;;;;;19.30;7.55;;;;;;;;;;5053434;28;20395;-67
2023/03/07 03:24:50;;;;;;;17.23;7.60;;;;;;;;;;5037411;28;20071;-67
2023/03/07 03:27:18;;;;;;;19.45;7.57;;;;;;;;;;5048716;28;20412;-67
2023/03/07 03:29:48;;;;;;;15.32;7.60;;;;;;;;;;5043102;28;20078;-67
2023/03/07 03:32:14;;;;;;;15.32;7.57;;;;;;;;;;5058413;28;20037;-67
2023/03/07 03:34:42;;;;;;;11.70;6.90;;;;;;;;;;5036448;28;20043;-67
2023/03/07 03:37:08;;;;;;;16.13;6.70;;;;;;;;;;5050422;28;20045;-67
2023/03/07 03:39:35;;;;;;;13.93;7.30;;;;;;;;;;5041132;28;20072;-67
2023/03/07 03:42:02;;;;;;;13.73;6.70;;;;;;;;;;5055557;28;20106;-67
2023/03/07 03:44:29;;;;;;;13.88;7.38;;;;;;;;;;5057290;28;20036;-67
2023/03/07 03:46:56;;;;;;;11.80;6.78;;;;;;;;;;5071114;28;20025;-67
2023/03/07 03:49:23;;;;;;;15.27;7.25;;;;;;;;;;5071061;28;20032;-67
2023/03/07 03:51:51;;;;;;;12.65;6.65;;;;;;;;;;5070171;28;20488;-67
2023/03/07 03:54:18;;;;;;;16.08;6.93;;;;;;;;;;5061039;28;20392;-67
2023/03/07 03:56:44;;;;;;;13.80;7.13;;;;;;;;;;5063348;28;20434;-67
2023/03/07 03:59:10;;;;;;;11.02;6.30;;;;;;;;;;5050308;28;20032;-67
2023/03/07 04:01:36;;;;;;;11.18;6.35;;;;;;;;;;5058828;28;20388;-67
2023/03/07 04:04:03;;;;;;;13.00;6.55;;;;;;;;;;5043463;28;20033;-67
2023/03/07 04:06:31;;;;;;;14.43;6.40;;;;;;;;;;5031396;28;20029;-67
2023/03/07 04:08:58;;;;;;;12.77;6.30;;;;;;;;;;5047619;28;20036;-67
2023/03/07 04:11:25;;;;;;;12.95;6.70;;;;;;;;;;5052750;28;20033;-67
2023/03/07 04:13:51;;;;;;;13.10;6.35;;;;;;;;;;5064013;28;20028;-67
2023/03/07 04:16:19;;;;;;;13.43;6.65;;;;;;;;;;5045699;28;20037;-67
2023/03/07 04:18:45;;;;;;;11.32;6.15;;;;;;;;;;5070953;28;20032;-67
2023/03/07 04:21:11;;;;;;;16.77;6.95;;;;;;;;;;5062632;28;20108;-67
2023/03/07 04:23:38;;;;;;;12.45;6.50;;;;;;;;;;5068558;28;20453;-67
2023/03/07 04:26:05;;;;;;;14.75;6.80;;;;;;;;;;5046985;28;20032;-67
2023/03/07 04:28:52;;;;;;;12.23;6.50;;;;;;;;;;5043926;28;20043;-67
2023/03/07 04:31:30;;;;;;;16.88;6.80;;;;;;;;;;5067927;28;20032;-67
2023/03/07 04:33:59;;;;;;;12.50;6.10;;;;;;;;;;5048060;28;20519;-67
2023/03/07 04:36:25;;;;;;;10.93;6.00;;;;;;;;;;5067830;28;20032;-67
2023/03/07 04:38:51;;;;;;;15.35;7.72;;;;;;;;;;5058184;28;20025;-67
2023/03/07 04:41:20;;;;;;;9.45;5.85;;;;;;;;;;5052707;28;20040;-67
2023/03/07 04:43:48;;;;;;;15.48;6.13;;;;;;;;;;5036399;28;20503;-67
2023/03/07 04:46:15;;;;;;;19.60;7.05;;;;;;;;;;5064495;28;20436;-67
2023/03/07 04:48:41;;;;;;;16.65;6.75;;;;;;;;;;5041563;28;20086;-67
2023/03/07 04:51:08;;;;;;;11.07;5.65;;;;;;;;;;5052014;28;20037;-67
2023/03/07 04:53:34;;;;;;;14.98;7.30;;;;;;;;;;5041407;28;20032;-68
2023/03/07 04:56:01;;;;;;;14.07;6.38;;;;;;;;;;5065292;28;20379;-67
2023/03/07 04:58:29;;;;;;;13.70;6.53;;;;;;;;;;5043414;28;20538;-67
2023/03/07 05:00:58;;;;;;;11.82;5.72;;;;;;;;;;5055445;28;20055;-67
2023/03/07 05:03:26;;;;;;;13.75;5.95;;;;;;;;;;5037412;28;20107;-67
2023/03/07 05:05:52;;;;;;;9.60;5.60;;;;;;;;;;5044187;28;20354;-67
2023/03/07 05:08:19;;;;;;;11.90;6.07;;;;;;;;;;5074142;28;20024;-67
2023/03/07 05:10:46;;;;;;;12.45;6.35;;;;;;;;;;5061054;28;20391;-67
2023/03/07 05:13:12;;;;;;;13.13;5.85;;;;;;;;;;5039498;28;20094;-67
2023/03/07 05:15:39;;;;;;;16.77;6.03;;;;;;;;;;5051252;28;20484;-67
2023/03/07 05:18:06;;;;;;;11.73;5.93;;;;;;;;;;5040472;28;20024;-67
2023/03/07 05:20:32;;;;;;;12.15;5.95;;;;;;;;;;5063389;28;20028;-67
2023/03/07 05:22:59;;;;;;;10.10;5.72;;;;;;;;;;5052138;28;20035;-67
2023/03/07 05:25:25;;;;;;;16.85;6.10;;;;;;;;;;5068922;28;20078;-67
2023/03/07 05:27:52;;;;;;;13.82;6.40;;;;;;;;;;5042005;28;20056;-67
2023/03/07 05:30:20;;;;;;;15.43;6.65;;;;;;;;;;5064006;28;20478;-67
2023/03/07 05:32:46;;;;;;;10.15;5.15;;;;;;;;;;5060989;28;20167;-67
2023/03/07 05:35:14;;;;;;;10.77;5.95;;;;;;;;;;5038875;28;20488;-67
2023/03/07 05:37:41;;;;;;;8.13;5.15;;;;;;;;;;5049117;28;20058;-67
2023/03/07 05:40:11;;;;;;;11.30;5.55;;;;;;;;;;5044350;28;20539;-67
2023/03/07 05:42:41;;;;;;;14.93;5.95;;;;;;;;;;5046833;28;20040;-66
2023/03/07 05:45:08;;;;;;;10.07;5.38;;;;;;;;;;5049333;28;20046;-66
2023/03/07 05:47:35;;;;;;;9.02;4.90;;;;;;;;;;5048042;28;20024;-66
2023/03/07 05:50:01;;;;;;;11.02;6.35;;;;;;;;;;5044078;28;20029;-67
2023/03/07 05:52:28;;;;;;;8.23;4.60;;;;;;;;;;5043789;28;20021;-67
2023/03/07 05:54:54;;;;;;;11.65;4.97;;;;;;;;;;5044484;28;20111;-67
2023/03/07 05:57:21;;;;;;;11.23;5.20;;;;;;;;;;5047639;28;20035;-67
2023/03/07 05:59:47;;;;;;;12.20;5.90;;;;;;;;;;5061751;28;20546;-66
2023/03/07 06:02:14;;;;;;;9.82;5.13;;;;;;;;;;5044012;28;20028;-67
2023/03/07 06:04:40;;;;;;;8.15;4.85;;;;;;;;;;5063063;28;20024;-67
2023/03/07 06:07:06;;;;;;;8.00;4.55;;;;;;;;;;5044840;28;20021;-67
2023/03/07 06:09:33;;;;;;;9.13;4.97;;;;;;;;;;5052784;28;20070;-67
2023/03/07 06:12:00;;;;;;;9.32;4.68;;;;;;;;;;5050615;28;20037;-67
2023/03/07 06:14:26;;;;;;;10.98;5.28;;;;;;;;;;5055867;28;20032;-66
2023/03/07 06:16:52;;;;;;;12.82;6.00;;;;;;;;;;5047133;28;20081;-65
2023/03/07 06:19:19;;;;;;;8.93;4.65;;;;;;;;;;5067593;28;20037;-66
2023/03/07 06:21:47;;;;;;;10.95;5.35;;;;;;;;;;5036357;28;20025;-64
2023/03/07 06:24:13;;;;;;;11.02;4.90;;;;;;;;;;5054137;28;20044;-66
2023/03/07 06:26:40;;;;;;;9.68;5.50;;;;;;;;;;5060864;28;20052;-66
2023/03/07 06:29:06;;;;;;;11.70;5.88;;;;;;;;;;5069302;28;20408;-66
2023/03/07 06:31:32;;;;;;;10.25;4.55;;;;;;;;;;5045874;28;20028;-66
2023/03/07 06:33:59;;;;;;;11.20;4.57;;;;;;;;;;5045487;28;20029;-66
2023/03/07 06:36:26;;;;;;;9.35;5.15;;;;;;;;;;5064605;28;20032;-66
2023/03/07 06:38:56;;;;;;;8.98;5.00;;;;;;;;;;5060902;28;20055;-66
2023/03/07 06:41:23;;;;;;;8.15;4.70;;;;;;;;;;5071208;28;20040;-67
2023/03/07 06:43:52;;;;;;;7.43;4.68;;;;;;;;;;5059718;28;20126;-67
2023/03/07 06:46:20;;;;;;;12.70;5.22;;;;;;;;;;5054205;28;20059;-67
2023/03/07 06:48:49;;;;;;;11.52;4.93;;;;;;;;;;5054780;28;20105;-67
2023/03/07 06:51:17;;;;;;;9.55;4.93;;;;;;;;;;5054973;28;20048;-67
2023/03/07 06:53:46;;;;;;;11.20;4.80;;;;;;;;;;5045386;28;20041;-67
2023/03/07 06:56:12;;;;;;;10.23;4.45;;;;;;;;;;5050089;28;20042;-67
2023/03/07 06:58:39;;;;;;;10.57;4.72;;;;;;;;;;5057869;28;20086;-67
2023/03/07 07:01:09;;;;;;;11.88;4.93;;;;;;;;;;5054772;28;20124;-67
2023/03/07 07:03:35;;;;;;;7.50;4.93;;;;;;;;;;5039746;28;20029;-67
2023/03/07 07:06:02;;;;;;;10.75;4.95;;;;;;;;;;5066052;28;20050;-67
2023/03/07 07:08:30;;;;;;;9.25;4.75;;;;;;;;;;5052943;28;20024;-67
2023/03/07 07:10:58;;;;;;;10.70;4.75;;;;;;;;;;5053284;28;20028;-67
2023/03/07 07:13:24;;;;;;;7.82;4.00;;;;;;;;;;5052932;28;20032;-67
2023/03/07 07:15:51;;;;;;;10.80;4.57;;;;;;;;;;5050040;28;20388;-67
2023/03/07 07:18:17;;;;;;;6.07;4.05;;;;;;;;;;5071812;28;20063;-67
2023/03/07 07:20:43;;;;;;;8.32;4.35;;;;;;;;;;5055089;28;20017;-66
2023/03/07 07:23:09;;;;;;;6.30;4.35;;;;;;;;;;5064854;28;20020;-66
2023/03/07 07:25:37;;;;;;;10.57;4.50;;;;;;;;;;5072401;28;20415;-66
2023/03/07 07:28:03;;;;;;;7.97;5.32;;;;;;;;;;5072729;28;20032;-73
2023/03/07 07:30:29;;;;;;;8.68;4.25;;;;;;;;;;5060014;28;20037;-67
2023/03/07 07:32:55;;;;;;;7.43;4.10;;;;;;;;;;5072539;28;20501;-66
2023/03/07 07:35:22;;;;;;;12.20;4.95;;;;;;;;;;5050852;28;20025;-65
2023/03/07 07:37:48;;;;;;;8.05;4.88;;;;;;;;;;5036507;28;20037;-68
2023/03/07 07:40:15;;;;;;;8.25;4.68;;;;;;;;;;5071574;28;20045;-67
2023/03/07 07:42:42;;;;;;;7.32;4.50;;;;;;;;;;5058410;28;20119;-67
2023/03/07 07:45:17;;;;;;;12.43;4.60;;;;;;;;;;5047358;28;20047;-67
2023/03/07 07:47:43;;;;;;;10.63;4.82;;;;;;;;;;5054675;28;20542;-67
2023/03/07 07:50:10;;;;;;;12.15;4.72;;;;;;;;;;5074788;28;20107;-67
2023/03/07 07:52:36;;;;;;;10.52;5.35;;;;;;;;;;5056804;28;20036;-67
2023/03/07 07:55:03;;;;;;;9.18;4.50;;;;;;;;;;5057469;28;20484;-67
2023/03/07 07:57:29;;;;;;;11.15;5.57;;;;;;;;;;5053810;28;20036;-67
2023/03/07 07:59:57;;;;;;;13.38;5.25;;;;;;;;;;5058341;28;20487;-67
2023/03/07 08:02:24;;;;;;;10.65;5.63;;;;;;;;;;5052452;28;20522;-67
2023/03/07 08:04:50;;;;;;;9.63;5.50;;;;;;;;;;5070950;28;20055;-67
2023/03/07 08:07:16;;;;;;;12.32;5.38;;;;;;;;;;5075034;28;20025;-67
2023/03/07 08:09:42;;;;;;;10.30;5.60;;;;;;;;;;5065058;28;20439;-67
2023/03/07 08:12:11;;;;;;;10.23;5.65;;;;;;;;;;5067670;28;20021;-67
2023/03/07 08:14:37;;;;;;;9.65;5.20;;;;;;;;;;5069160;28;20115;-67
2023/03/07 08:17:04;;;;;;;15.02;5.53;;;;;;;;;;5074806;28;20115;-67
2023/03/07 08:19:30;;;;;;;11.75;5.45;;;;;;;;;;5074156;28;20047;-67
2023/03/07 08:21:57;;;;;;;11.13;5.03;;;;;;;;;;5055154;28;20029;-68
2023/03/07 08:24:23;;;;;;;14.23;5.43;;;;;;;;;;5075266;28;20115;-67
2023/03/07 08:26:49;;;;;;;9.02;5.32;;;;;;;;;;5072027;28;20028;-67
2023/03/07 08:29:16;;;;;;;12.32;5.22;;;;;;;;;;5075212;28;20047;-67
2023/03/07 08:31:47;;;;;;;12.00;5.28;;;;;;;;;;5068678;28;20484;-67
2023/03/07 08:34:13;;;;;;;10.02;4.78;;;;;;;;;;5058034;28;20095;-67
2023/03/07 08:36:39;;;;;;;8.57;3.90;;;;;;;;;;5073920;28;20164;-67
2023/03/07 08:39:06;;;;;;;12.73;4.20;;;;;;;;;;5070924;28;20376;-67
2023/03/07 08:41:32;;;;;;;7.13;3.90;;;;;;;;;;5053088;28;20381;-67
2023/03/07 08:43:58;;;;;;;9.20;4.05;;;;;;;;;;5053953;28;20025;-67
2023/03/07 08:46:24;;;;;;;6.53;3.72;;;;;;;;;;5053764;28;20063;-67
2023/03/07 08:48:51;;;;;;;6.70;3.70;;;;;;;;;;5054367;28;20056;-67
2023/03/07 08:51:17;;;;;;;9.25;3.75;;;;;;;;;;5049244;28;20076;-67
2023/03/07 08:53:44;;;;;;;7.80;3.45;;;;;;;;;;5053769;28;20042;-67
2023/03/07 08:56:12;;;;;;;4.60;2.55;;;;;;;;;;5053586;28;20074;-67
2023/03/07 08:58:38;;;;;;;5.97;3.13;;;;;;;;;;5051403;28;20074;-67
2023/03/07 09:01:05;;;;;;;4.00;2.40;;;;;;;;;;5050668;28;20104;-67
2023/03/07 09:03:32;;;;;;;4.95;2.75;;;;;;;;;;5053031;28;20029;-67
2023/03/07 09:05:58;;;;;;;3.10;2.30;;;;;;;;;;5051463;28;20086;-67
2023/03/07 09:08:24;;;;;;;3.88;2.63;;;;;;;;;;5054223;28;20033;-67
2023/03/07 09:10:50;;;;;;;6.38;2.80;;;;;;;;;;5032844;28;20028;-67
2023/03/07 09:13:17;;;;;;;3.92;2.55;;;;;;;;;;5050812;28;20493;-67
2023/03/07 09:15:43;;;;;;;3.50;2.17;;;;;;;;;;5049692;28;20492;-67
2023/03/07 09:18:10;;;;;;;3.42;2.38;;;;;;;;;;5053763;28;20025;-67
2023/03/07 09:20:39;;;;;;;4.10;1.92;;;;;;;;;;5054377;28;20029;-67
2023/03/07 09:23:06;;;;;;;5.38;2.38;;;;;;;;;;5053376;28;20079;-67
2023/03/07 09:25:32;;;;;;;5.47;1.90;;;;;;;;;;5050718;28;20431;-67
2023/03/07 09:27:58;;;;;;;3.65;1.92;;;;;;;;;;5053673;28;20385;-67
2023/03/07 09:30:26;;;;;;;3.35;1.80;;;;;;;;;;5052777;28;20495;-67
2023/03/07 09:32:53;;;;;;;3.28;1.90;;;;;;;;;;5053579;28;20090;-67
2023/03/07 09:35:20;;;;;;;4.72;2.05;;;;;;;;;;5050136;28;20032;-67
2023/03/07 09:37:46;;;;;;;6.45;2.55;;;;;;;;;;5053408;28;20055;-67
2023/03/07 09:40:17;;;;;;;3.30;1.83;;;;;;;;;;5052712;28;20136;-67
2023/03/07 09:42:49;;;;;;;3.05;1.70;;;;;;;;;;5049227;28;20044;-67
2023/03/07 09:45:16;;;;;;;3.30;1.67;;;;;;;;;;5028872;28;20684;-67
2023/03/07 09:48:15;;;;;;;4.18;1.70;;;;;;;;;;5016361;28;20040;-67
2023/03/07 09:50:49;;;;;;;4.45;1.85;;;;;;;;;;5039557;28;20068;-67
2023/03/07 09:53:18;;;;;;;2.47;1.55;;;;;;;;;;5048910;28;20037;-67
2023/03/07 09:55:45;;;;;;;4.47;2.13;;;;;;;;;;5047573;28;20512;-67
2023/03/07 09:58:18;;;;;;;7.75;2.03;;;;;;;;;;5048495;28;20029;-67
2023/03/07 10:00:45;;;;;;;6.10;2.30;;;;;;;;;;5052241;28;20087;-67
2023/03/07 10:03:26;;;;;;;5.07;2.03;;;;;;;;;;5033321;28;20129;-67
2023/03/07 10:05:56;;;;;;;5.65;2.47;;;;;;;;;;5046356;28;20021;-67
2023/03/07 10:08:28;;;;;;;6.47;2.08;;;;;;;;;;5038332;28;20018;-67
2023/03/07 10:11:12;;;;;;;3.70;1.98;;;;;;;;;;5050830;28;20033;-67
2023/03/07 10:13:48;;;;;;;5.93;2.47;;;;;;;;;;5033453;28;20037;-67
2023/03/07 10:16:14;;;;;;;3.28;1.98;;;;;;;;;;5048251;28;20060;-67
2023/03/07 10:18:40;;;;;;;5.43;2.50;;;;;;;;;;5053373;28;20028;-67
2023/03/07 10:21:12;;;;;;;4.38;2.25;;;;;;;;;;5038285;28;20030;-67
2023/03/07 10:23:47;;;;;;;5.17;2.73;;;;;;;;;;5052796;28;20021;-67
2023/03/07 10:26:19;;;;;;;5.93;2.72;;;;;;;;;;5038914;28;20026;-67
2023/03/07 10:28:45;;;;;;;8.18;3.10;;;;;;;;;;5033202;28;20029;-67
2023/03/07 10:31:25;;;;;;;5.82;2.67;;;;;;;;;;5047255;28;20029;-67
2023/03/07 10:33:52;;;;;;;8.05;3.22;;;;;;;;;;5050859;28;20044;-67
2023/03/07 10:36:28;;;;;;;5.00;2.95;;;;;;;;;;5047350;28;20033;-67
2023/03/07 10:39:04;;;;;;;10.18;3.63;;;;;;;;;;5052924;28;20502;-67
2023/03/07 10:41:30;;;;;;;3.05;2.22;;;;;;;;;;5065409;28;20372;-67
2023/03/07 10:43:56;;;;;;;6.25;3.80;;;;;;;;;;5058940;28;20016;-67
2023/03/07 10:46:28;;;;;;;5.00;2.55;;;;;;;;;;5071941;28;20040;-67
2023/03/07 10:49:08;;;;;;;3.77;2.30;;;;;;;;;;5072541;28;20119;-67
2023/03/07 10:51:46;;;;;;;3.95;2.22;;;;;;;;;;5060642;28;20275;-67
2023/03/07 10:54:27;;;;;;;5.82;2.53;;;;;;;;;;5072702;28;20541;-67
2023/03/07 10:57:03;;;;;;;3.83;2.35;;;;;;;;;;5071605;28;20089;-67
2023/03/07 10:59:30;;;;;;;5.53;2.78;;;;;;;;;;5070796;28;20040;-67
2023/03/07 11:02:00;;;;;;;5.10;2.28;;;;;;;;;;5070495;28;20082;-67
2023/03/07 11:04:27;;;;;;;4.20;2.60;;;;;;;;;;5071446;28;20349;-67
2023/03/07 11:07:00;;;;;;;6.80;2.33;;;;;;;;;;5071509;28;20085;-67
2023/03/07 11:09:26;;;;;;;3.78;2.17;;;;;;;;;;5071788;28;21316;-68
2023/03/07 11:11:52;;;;;;;3.72;2.10;;;;;;;;;;5069236;28;20028;-67
2023/03/07 11:14:20;;;;;;;2.42;1.83;;;;;;;;;;5068901;28;20033;-67
2023/03/07 11:16:51;;;;;;;5.47;2.75;;;;;;;;;;5070071;28;20107;-67
2023/03/07 11:19:29;;;;;;;4.70;2.33;;;;;;;;;;5070896;28;20487;-67
2023/03/07 11:21:56;;;;;;;4.90;2.30;;;;;;;;;;5069270;28;20032;-67
2023/03/07 11:24:25;;;;;;;7.22;2.47;;;;;;;;;;5070972;28;20013;-67
2023/03/07 11:26:55;;;;;;;5.22;2.83;;;;;;;;;;5070857;28;20020;-67
2023/03/07 11:29:21;;;;;;;4.13;2.55;;;;;;;;;;5069918;28;20041;-67
2023/03/07 11:31:47;;;;;;;3.78;2.35;;;;;;;;;;5070034;28;20016;-67
2023/03/07 11:34:22;;;;;;;4.95;2.88;;;;;;;;;;5068738;28;20376;-67
2023/03/07 11:36:54;;;;;;;5.25;2.92;;;;;;;;;;5070653;28;20415;-67
2023/03/07 11:39:32;;;;;;;3.72;2.38;;;;;;;;;;5068086;28;20056;-67
2023/03/07 11:42:12;;;;;;;5.78;2.35;;;;;;;;;;5067731;28;20024;-67
2023/03/07 11:44:54;;;;;;;4.53;2.08;;;;;;;;;;5068665;28;20043;-67
2023/03/07 11:47:23;;;;;;;5.35;2.47;;;;;;;;;;5068279;28;20047;-67
2023/03/07 11:49:52;;;;;;;5.32;2.22;;;;;;;;;;5067544;28;20116;-67
2023/03/07 11:52:37;;;;;;;5.30;2.17;;;;;;;;;;5067982;28;20025;-67
2023/03/07 11:55:24;;;;;;;3.05;2.33;;;;;;;;;;5068607;28;20112;-67
2023/03/07 11:57:59;;;;;;;4.53;2.63;;;;;;;;;;5058592;28;20124;-67
2023/03/07 12:00:25;;;;;;;6.40;3.17;;;;;;;;;;5071334;28;20056;-67
2023/03/07 12:03:03;;;;;;;3.97;2.70;;;;;;;;;;5072520;28;20460;-67
2023/03/07 12:05:30;;;;;;;3.53;2.60;;;;;;;;;;5069669;28;20051;-67
2023/03/07 12:08:11;;;;;;;6.05;2.60;;;;;;;;;;5064890;28;20449;-67
2023/03/07 12:10:48;;;;;;;7.18;3.15;;;;;;;;;;5062691;28;20035;-67
2023/03/07 12:13:17;;;;;;;7.07;3.00;;;;;;;;;;5071252;28;20037;-67
2023/03/07 12:15:50;;;;;;;6.40;3.47;;;;;;;;;;5063482;28;20029;-67
2023/03/07 12:18:25;;;;;;;6.88;3.60;;;;;;;;;;5071236;28;20082;-67
2023/03/07 12:21:01;;;;;;;4.90;2.67;;;;;;;;;;5059953;28;20036;-67
2023/03/07 12:23:38;;;;;;;7.53;3.20;;;;;;;;;;5050675;28;20418;-67
2023/03/07 12:26:22;;;;;;;4.20;2.83;;;;;;;;;;5064996;28;20033;-67
2023/03/07 12:28:51;;;;;;;5.03;2.60;;;;;;;;;;5060614;28;20040;-67
2023/03/07 12:31:35;;;;;;;5.05;2.70;;;;;;;;;;5070820;28;20028;-67
2023/03/07 12:34:13;;;;;;;6.53;2.53;;;;;;;;;;5060573;28;20020;-67
2023/03/07 12:36:39;;;;;;;9.82;3.13;;;;;;;;;;5065405;28;20419;-67
2023/03/07 12:39:05;;;;;;;4.85;2.15;;;;;;;;;;5068057;28;20027;-67
2023/03/07 12:41:34;;;;;;;4.82;1.92;;;;;;;;;;5069996;28;20055;-67
2023/03/07 12:44:04;;;;;;;6.03;2.70;;;;;;;;;;5070687;28;20381;-67
2023/03/07 12:46:54;;;;;;;3.65;2.28;;;;;;;;;;5063747;28;20048;-67
2023/03/07 12:49:38;;;;;;;6.00;2.90;;;;;;;;;;5071368;28;20115;-67
2023/03/07 12:52:06;;;;;;;4.90;2.40;;;;;;;;;;5058555;28;20032;-68
2023/03/07 12:54:36;;;;;;;6.95;3.00;;;;;;;;;;5060089;28;20685;-67
2023/03/07 12:57:12;;;;;;;4.43;2.22;;;;;;;;;;5063080;28;20134;-67
2023/03/07 12:59:40;;;;;;;4.25;2.30;;;;;;;;;;5073589;28;20051;-67
2023/03/07 13:02:12;;;;;;;5.22;2.47;;;;;;;;;;5064388;28;20031;-67
2023/03/07 13:04:38;;;;;;;5.55;2.65;;;;;;;;;;5073789;28;20029;-68
2023/03/07 13:07:05;;;;;;;8.00;3.00;;;;;;;;;;5070241;28;20035;-68
2023/03/07 13:09:32;;;;;;;3.78;2.58;;;;;;;;;;5071366;28;20035;-68
2023/03/07 13:12:07;;;;;;;4.32;2.42;;;;;;;;;;5069587;28;20107;-67
2023/03/07 13:14:41;;;;;;;4.10;2.70;;;;;;;;;;5071329;28;20025;-67
2023/03/07 13:17:11;;;;;;;5.70;4.00;;;;;;;;;;5071315;28;20027;-68
2023/03/07 13:19:38;;;;;;;6.65;3.67;;;;;;;;;;5069220;28;20387;-68
2023/03/07 13:22:24;;;;;;;7.85;3.45;;;;;;;;;;5070377;28;20017;-68
2023/03/07 13:24:51;;;;;;;5.68;2.75;;;;;;;;;;5011898;28;20093;-68
2023/03/07 13:27:17;;;;;;;5.57;3.20;;;;;;;;;;5011224;28;20485;-68
2023/03/07 13:30:02;;;;;;;4.45;3.15;;;;;;;;;;5006861;28;20030;-68
2023/03/07 13:32:48;;;;;;;6.00;3.58;;;;;;;;;;5004034;28;20030;-67
2023/03/07 13:35:23;;;;;;;5.40;3.75;;;;;;;;;;4956221;28;20546;-67
2023/03/07 13:37:54;;;;;;;5.63;3.53;;;;;;;;;;4952803;29;20031;-67
2023/03/07 13:40:27;;;;;;;7.18;3.83;;;;;;;;;;4953315;28;20040;-67
2023/03/07 13:42:54;;;;;;;6.88;3.70;;;;;;;;;;4953503;29;20078;-67
2023/03/07 13:45:46;;;;;;;6.18;3.97;;;;;;;;;;4953861;29;20106;-67
2023/03/07 13:48:18;;;;;;;7.85;4.13;;;;;;;;;;4952448;28;20050;-67
2023/03/07 13:50:45;;;;;;;8.80;4.15;;;;;;;;;;4955148;28;20082;-67
2023/03/07 13:53:13;;;;;;;12.32;5.30;;;;;;;;;;4953121;28;20163;-67
2023/03/07 13:55:45;;;;;;;9.98;5.82;;;;;;;;;;4952745;29;20032;-67
2023/03/07 13:58:20;;;;;;;10.70;4.40;;;;;;;;;;4951751;29;20109;-67
2023/03/07 14:00:51;;;;;;;7.90;4.55;;;;;;;;;;4953388;28;20039;-69
2023/03/07 14:03:22;;;;;;;9.38;4.88;;;;;;;;;;4990431;28;20030;-67
2023/03/07 14:05:49;;;;;;;7.85;4.53;;;;;;;;;;4986607;28;20038;-68
2023/03/07 14:08:15;;;;;;;9.82;5.13;;;;;;;;;;4987489;28;20110;-68
2023/03/07 14:10:44;;;;;;;9.95;4.68;;;;;;;;;;4991469;28;20038;-67
2023/03/07 14:13:13;;;;;;;7.32;5.10;;;;;;;;;;5059507;28;20040;-67
2023/03/07 14:15:58;;;;;;;11.02;5.70;;;;;;;;;;5070525;28;20028;-68
2023/03/07 14:18:27;;;;;;;9.93;5.80;;;;;;;;;;5064865;28;20021;-68
2023/03/07 14:21:19;;;;;;;10.13;6.28;;;;;;;;;;5070249;28;20028;-68
2023/03/07 14:23:49;;;;;;;9.15;5.30;;;;;;;;;;5067053;28;20408;-68
2023/03/07 14:26:45;;;;;;;8.95;5.13;;;;;;;;;;5069813;28;20082;-67
2023/03/07 14:29:11;;;;;;;11.25;5.90;;;;;;;;;;5026917;28;20076;-68
2023/03/07 14:31:38;;;;;;;10.35;5.38;;;;;;;;;;5072120;28;20028;-68
2023/03/07 14:34:16;;;;;;;10.27;5.47;;;;;;;;;;5060049;28;20067;-68
2023/03/07 14:36:43;;;;;;;14.60;6.80;;;;;;;;;;5071107;28;20523;-68
2023/03/07 14:39:12;;;;;;;10.68;6.88;;;;;;;;;;5069231;28;20434;-67
2023/03/07 14:41:51;;;;;;;9.80;6.03;;;;;;;;;;5073281;28;20044;-68
2023/03/07 14:44:56;;;;;;;11.82;6.93;;;;;;;;;;5070249;28;20372;-68
2023/03/07 14:47:41;;;;;;;12.77;5.95;;;;;;;;;;4985095;28;20493;-68
2023/03/07 14:50:13;;;;;;;11.68;6.15;;;;;;;;;;4993359;28;20026;-68